Terminal Aerodrome Forecast
Issued by NWS Lake Charles, LA

Home | Current Version | Previous Version | Text Only | Print | Product List | Glossary On
Versions: 1 2 3 4 5 6 7 8 9 10 11 12 13 14 15 16 17 18 19 20
322
FTUS44 KLCH 201135
TAFARA
TAF
KARA 201135Z 2012/2112 13009KT P6SM OVC012
     FM201500 15014G19KT P6SM BKN015 OVC025
     FM201700 17019G28KT P6SM FEW025 BKN045
     FM202100 18017G24KT P6SM VCSH FEW030 BKN050
     FM210100 15011KT P6SM VCSH OVC015
     FM210900 14008KT 5SM -SHRA OVC008=

USA.gov is the U.S. government's official web portal to all federal, state and local government web resources and services.